sensor_id;sensor_type;location;lat;lon;timestamp;P1;durP1;ratioP1;P2;durP2;ratioP2
68072;SDS011;54862;51.502;7.446;2022-09-09T00:00:17;3.30;;;1.70;;
68072;SDS011;54862;51.502;7.446;2022-09-09T00:05:36;8.25;;;1.90;;
68072;SDS011;54862;51.502;7.446;2022-09-09T00:08:07;6.35;;;2.20;;
68072;SDS011;54862;51.502;7.446;2022-09-09T00:10:40;2.22;;;1.70;;
68072;SDS011;54862;51.502;7.446;2022-09-09T00:13:16;2.85;;;1.70;;
68072;SDS011;54862;51.502;7.446;2022-09-09T00:19:17;3.22;;;1.80;;
68072;SDS011;54862;51.502;7.446;2022-09-09T00:21:16;4.47;;;2.03;;
68072;SDS011;54862;51.502;7.446;2022-09-09T00:23:52;3.33;;;1.85;;
68072;SDS011;54862;51.502;7.446;2022-09-09T00:26:26;4.25;;;1.80;;
68072;SDS011;54862;51.502;7.446;2022-09-09T00:29:02;3.85;;;2.05;;
68072;SDS011;54862;51.502;7.446;2022-09-09T00:31:30;8.35;;;2.03;;
68072;SDS011;54862;51.502;7.446;2022-09-09T00:34:18;5.78;;;2.33;;
68072;SDS011;54862;51.502;7.446;2022-09-09T00:36:42;4.53;;;1.83;;
68072;SDS011;54862;51.502;7.446;2022-09-09T00:39:16;3.08;;;1.63;;
68072;SDS011;54862;51.502;7.446;2022-09-09T00:41:50;5.30;;;2.15;;
68072;SDS011;54862;51.502;7.446;2022-09-09T00:57:28;3.30;;;1.77;;
68072;SDS011;54862;51.502;7.446;2022-09-09T01:05:24;4.45;;;1.80;;
68072;SDS011;54862;51.502;7.446;2022-09-09T01:07:53;5.50;;;1.88;;
68072;SDS011;54862;51.502;7.446;2022-09-09T01:12:54;4.18;;;1.90;;
68072;SDS011;54862;51.502;7.446;2022-09-09T01:15:24;4.93;;;1.95;;
68072;SDS011;54862;51.502;7.446;2022-09-09T01:17:53;4.13;;;1.77;;
68072;SDS011;54862;51.502;7.446;2022-09-09T01:27:52;3.97;;;2.00;;
68072;SDS011;54862;51.502;7.446;2022-09-09T01:30:19;3.80;;;1.73;;
68072;SDS011;54862;51.502;7.446;2022-09-09T01:32:47;5.57;;;2.13;;
68072;SDS011;54862;51.502;7.446;2022-09-09T01:37:58;2.83;;;1.85;;
68072;SDS011;54862;51.502;7.446;2022-09-09T01:40:25;5.90;;;2.22;;
68072;SDS011;54862;51.502;7.446;2022-09-09T01:42:52;3.83;;;2.10;;
68072;SDS011;54862;51.502;7.446;2022-09-09T01:45:18;4.35;;;2.15;;
68072;SDS011;54862;51.502;7.446;2022-09-09T01:47:44;5.43;;;2.10;;
68072;SDS011;54862;51.502;7.446;2022-09-09T01:50:11;2.58;;;1.80;;
68072;SDS011;54862;51.502;7.446;2022-09-09T01:52:38;5.00;;;2.10;;
68072;SDS011;54862;51.502;7.446;2022-09-09T01:55:04;5.05;;;2.22;;
68072;SDS011;54862;51.502;7.446;2022-09-09T01:57:31;4.63;;;2.17;;
68072;SDS011;54862;51.502;7.446;2022-09-09T02:00:09;4.32;;;2.15;;
68072;SDS011;54862;51.502;7.446;2022-09-09T02:05:39;4.53;;;2.30;;
68072;SDS011;54862;51.502;7.446;2022-09-09T02:08:07;6.57;;;2.28;;
68072;SDS011;54862;51.502;7.446;2022-09-09T02:10:37;5.15;;;2.30;;
68072;SDS011;54862;51.502;7.446;2022-09-09T02:13:10;5.43;;;2.22;;
68072;SDS011;54862;51.502;7.446;2022-09-09T02:15:40;5.80;;;2.30;;
68072;SDS011;54862;51.502;7.446;2022-09-09T02:18:08;5.32;;;2.22;;
68072;SDS011;54862;51.502;7.446;2022-09-09T02:20:38;4.22;;;2.13;;
68072;SDS011;54862;51.502;7.446;2022-09-09T02:23:05;5.30;;;2.33;;
68072;SDS011;54862;51.502;7.446;2022-09-09T02:25:32;4.68;;;2.30;;
68072;SDS011;54862;51.502;7.446;2022-09-09T02:27:59;4.03;;;2.20;;
68072;SDS011;54862;51.502;7.446;2022-09-09T02:30:25;4.68;;;2.00;;
68072;SDS011;54862;51.502;7.446;2022-09-09T02:32:54;6.43;;;2.17;;
68072;SDS011;54862;51.502;7.446;2022-09-09T02:35:22;4.78;;;1.98;;
68072;SDS011;54862;51.502;7.446;2022-09-09T02:37:49;5.53;;;2.22;;
68072;SDS011;54862;51.502;7.446;2022-09-09T02:40:16;5.10;;;2.28;;
68072;SDS011;54862;51.502;7.446;2022-09-09T02:42:43;4.53;;;2.17;;
68072;SDS011;54862;51.502;7.446;2022-09-09T02:45:10;6.30;;;2.00;;
68072;SDS011;54862;51.502;7.446;2022-09-09T02:50:35;5.25;;;2.40;;
68072;SDS011;54862;51.502;7.446;2022-09-09T02:53:18;5.47;;;2.40;;
68072;SDS011;54862;51.502;7.446;2022-09-09T02:55:47;2.88;;;2.00;;
68072;SDS011;54862;51.502;7.446;2022-09-09T02:58:14;5.40;;;2.65;;
68072;SDS011;54862;51.502;7.446;2022-09-09T03:00:45;5.40;;;2.45;;
68072;SDS011;54862;51.502;7.446;2022-09-09T03:03:12;4.78;;;2.17;;
68072;SDS011;54862;51.502;7.446;2022-09-09T03:05:38;4.32;;;2.20;;
68072;SDS011;54862;51.502;7.446;2022-09-09T03:08:04;5.65;;;2.30;;
68072;SDS011;54862;51.502;7.446;2022-09-09T03:10:31;7.13;;;2.25;;
68072;SDS011;54862;51.502;7.446;2022-09-09T03:12:57;6.45;;;2.30;;
68072;SDS011;54862;51.502;7.446;2022-09-09T03:15:23;6.13;;;2.15;;
68072;SDS011;54862;51.502;7.446;2022-09-09T03:17:55;7.55;;;2.28;;
68072;SDS011;54862;51.502;7.446;2022-09-09T03:20:22;5.80;;;2.33;;
68072;SDS011;54862;51.502;7.446;2022-09-09T03:22:48;8.70;;;2.42;;
68072;SDS011;54862;51.502;7.446;2022-09-09T03:25:14;4.88;;;2.28;;
68072;SDS011;54862;51.502;7.446;2022-09-09T03:27:40;6.03;;;2.20;;
68072;SDS011;54862;51.502;7.446;2022-09-09T03:30:06;4.05;;;1.98;;
68072;SDS011;54862;51.502;7.446;2022-09-09T03:32:32;4.50;;;2.08;;
68072;SDS011;54862;51.502;7.446;2022-09-09T03:34:58;5.32;;;2.30;;
68072;SDS011;54862;51.502;7.446;2022-09-09T03:37:24;4.72;;;2.00;;
68072;SDS011;54862;51.502;7.446;2022-09-09T03:39:50;3.80;;;2.10;;
68072;SDS011;54862;51.502;7.446;2022-09-09T03:42:19;5.90;;;1.77;;
68072;SDS011;54862;51.502;7.446;2022-09-09T03:44:45;4.93;;;2.20;;
68072;SDS011;54862;51.502;7.446;2022-09-09T03:47:18;4.82;;;2.10;;
68072;SDS011;54862;51.502;7.446;2022-09-09T03:49:44;4.55;;;2.15;;
68072;SDS011;54862;51.502;7.446;2022-09-09T03:52:11;5.90;;;2.10;;
68072;SDS011;54862;51.502;7.446;2022-09-09T03:54:37;5.68;;;2.03;;
68072;SDS011;54862;51.502;7.446;2022-09-09T03:57:04;4.43;;;2.10;;
68072;SDS011;54862;51.502;7.446;2022-09-09T03:59:30;4.28;;;2.10;;
68072;SDS011;54862;51.502;7.446;2022-09-09T04:01:56;5.20;;;2.20;;
68072;SDS011;54862;51.502;7.446;2022-09-09T04:04:23;5.57;;;2.28;;
68072;SDS011;54862;51.502;7.446;2022-09-09T04:06:51;8.32;;;2.17;;
68072;SDS011;54862;51.502;7.446;2022-09-09T04:09:16;4.35;;;2.00;;
68072;SDS011;54862;51.502;7.446;2022-09-09T04:11:43;4.60;;;2.13;;
68072;SDS011;54862;51.502;7.446;2022-09-09T04:14:09;5.82;;;2.10;;
68072;SDS011;54862;51.502;7.446;2022-09-09T04:16:35;6.13;;;2.33;;
68072;SDS011;54862;51.502;7.446;2022-09-09T04:19:04;6.85;;;2.33;;
68072;SDS011;54862;51.502;7.446;2022-09-09T04:21:32;4.53;;;2.00;;
68072;SDS011;54862;51.502;7.446;2022-09-09T04:23:58;4.75;;;2.22;;
68072;SDS011;54862;51.502;7.446;2022-09-09T04:26:24;6.45;;;2.15;;
68072;SDS011;54862;51.502;7.446;2022-09-09T04:28:50;5.30;;;2.30;;
68072;SDS011;54862;51.502;7.446;2022-09-09T04:31:18;6.10;;;2.45;;
68072;SDS011;54862;51.502;7.446;2022-09-09T04:33:45;5.63;;;2.40;;
68072;SDS011;54862;51.502;7.446;2022-09-09T04:36:11;5.03;;;2.13;;
68072;SDS011;54862;51.502;7.446;2022-09-09T04:38:38;2.47;;;1.95;;
68072;SDS011;54862;51.502;7.446;2022-09-09T04:41:04;6.78;;;2.55;;
68072;SDS011;54862;51.502;7.446;2022-09-09T04:43:30;5.78;;;2.20;;
68072;SDS011;54862;51.502;7.446;2022-09-09T04:45:56;7.97;;;2.42;;
68072;SDS011;54862;51.502;7.446;2022-09-09T04:48:24;6.85;;;2.10;;
68072;SDS011;54862;51.502;7.446;2022-09-09T04:51:06;6.00;;;2.90;;
68072;SDS011;54862;51.502;7.446;2022-09-09T04:53:33;8.80;;;2.90;;
68072;SDS011;54862;51.502;7.446;2022-09-09T04:58:28;7.38;;;2.65;;
68072;SDS011;54862;51.502;7.446;2022-09-09T05:00:54;6.65;;;2.55;;
68072;SDS011;54862;51.502;7.446;2022-09-09T05:03:20;7.75;;;2.55;;
68072;SDS011;54862;51.502;7.446;2022-09-09T05:05:46;6.75;;;2.25;;
68072;SDS011;54862;51.502;7.446;2022-09-09T05:08:12;6.50;;;2.33;;
68072;SDS011;54862;51.502;7.446;2022-09-09T05:10:38;5.90;;;2.20;;
68072;SDS011;54862;51.502;7.446;2022-09-09T05:13:06;4.78;;;2.22;;
68072;SDS011;54862;51.502;7.446;2022-09-09T05:15:32;8.05;;;2.40;;
68072;SDS011;54862;51.502;7.446;2022-09-09T05:17:59;6.93;;;2.55;;
68072;SDS011;54862;51.502;7.446;2022-09-09T05:20:25;6.07;;;2.20;;
68072;SDS011;54862;51.502;7.446;2022-09-09T05:22:54;5.72;;;2.47;;
68072;SDS011;54862;51.502;7.446;2022-09-09T05:25:21;6.00;;;2.47;;
68072;SDS011;54862;51.502;7.446;2022-09-09T05:27:47;8.68;;;2.65;;
68072;SDS011;54862;51.502;7.446;2022-09-09T05:30:14;8.00;;;2.35;;
68072;SDS011;54862;51.502;7.446;2022-09-09T05:32:40;6.22;;;2.25;;
68072;SDS011;54862;51.502;7.446;2022-09-09T05:35:06;6.38;;;2.40;;
68072;SDS011;54862;51.502;7.446;2022-09-09T05:37:32;7.60;;;2.30;;
68072;SDS011;54862;51.502;7.446;2022-09-09T05:39:59;6.45;;;2.20;;
68072;SDS011;54862;51.502;7.446;2022-09-09T05:42:29;7.13;;;2.30;;
68072;SDS011;54862;51.502;7.446;2022-09-09T05:44:55;7.95;;;2.60;;
68072;SDS011;54862;51.502;7.446;2022-09-09T05:47:22;5.75;;;2.38;;
68072;SDS011;54862;51.502;7.446;2022-09-09T05:49:48;6.22;;;2.50;;
68072;SDS011;54862;51.502;7.446;2022-09-09T05:52:14;5.22;;;2.45;;
68072;SDS011;54862;51.502;7.446;2022-09-09T05:54:40;6.45;;;2.53;;
68072;SDS011;54862;51.502;7.446;2022-09-09T05:57:08;9.45;;;2.42;;
68072;SDS011;54862;51.502;7.446;2022-09-09T05:59:34;6.30;;;2.58;;
68072;SDS011;54862;51.502;7.446;2022-09-09T06:02:00;8.93;;;2.80;;
68072;SDS011;54862;51.502;7.446;2022-09-09T06:04:26;5.70;;;2.58;;
68072;SDS011;54862;51.502;7.446;2022-09-09T06:06:52;6.40;;;2.75;;
68072;SDS011;54862;51.502;7.446;2022-09-09T06:09:18;7.55;;;3.33;;
68072;SDS011;54862;51.502;7.446;2022-09-09T06:11:44;7.03;;;2.83;;
68072;SDS011;54862;51.502;7.446;2022-09-09T06:14:10;10.18;;;2.80;;
68072;SDS011;54862;51.502;7.446;2022-09-09T06:16:36;8.43;;;2.47;;
68072;SDS011;54862;51.502;7.446;2022-09-09T06:19:02;5.25;;;2.47;;
68072;SDS011;54862;51.502;7.446;2022-09-09T06:21:32;6.43;;;2.58;;
68072;SDS011;54862;51.502;7.446;2022-09-09T06:23:59;5.82;;;2.60;;
68072;SDS011;54862;51.502;7.446;2022-09-09T06:26:26;7.75;;;2.80;;
68072;SDS011;54862;51.502;7.446;2022-09-09T06:28:53;7.32;;;2.83;;
68072;SDS011;54862;51.502;7.446;2022-09-09T06:31:20;8.70;;;2.45;;
68072;SDS011;54862;51.502;7.446;2022-09-09T06:33:46;10.02;;;2.55;;
68072;SDS011;54862;51.502;7.446;2022-09-09T06:36:15;6.05;;;2.50;;
68072;SDS011;54862;51.502;7.446;2022-09-09T06:38:42;8.57;;;2.60;;
68072;SDS011;54862;51.502;7.446;2022-09-09T06:41:08;5.53;;;2.38;;
68072;SDS011;54862;51.502;7.446;2022-09-09T06:43:35;8.77;;;2.95;;
68072;SDS011;54862;51.502;7.446;2022-09-09T06:46:19;6.72;;;2.50;;
68072;SDS011;54862;51.502;7.446;2022-09-09T06:48:47;8.52;;;2.85;;
68072;SDS011;54862;51.502;7.446;2022-09-09T06:51:18;6.00;;;2.28;;
68072;SDS011;54862;51.502;7.446;2022-09-09T06:53:46;4.70;;;2.30;;
68072;SDS011;54862;51.502;7.446;2022-09-09T06:56:25;5.00;;;2.38;;
68072;SDS011;54862;51.502;7.446;2022-09-09T06:58:53;6.13;;;2.55;;
68072;SDS011;54862;51.502;7.446;2022-09-09T07:01:20;5.05;;;2.35;;
68072;SDS011;54862;51.502;7.446;2022-09-09T07:03:47;8.85;;;2.40;;
68072;SDS011;54862;51.502;7.446;2022-09-09T07:06:15;8.70;;;2.95;;
68072;SDS011;54862;51.502;7.446;2022-09-09T07:08:42;7.30;;;2.50;;
68072;SDS011;54862;51.502;7.446;2022-09-09T07:11:09;8.75;;;2.85;;
68072;SDS011;54862;51.502;7.446;2022-09-09T07:13:36;7.15;;;3.05;;
68072;SDS011;54862;51.502;7.446;2022-09-09T07:16:09;6.70;;;3.00;;
68072;SDS011;54862;51.502;7.446;2022-09-09T07:21:02;9.35;;;3.20;;
68072;SDS011;54862;51.502;7.446;2022-09-09T07:23:28;11.02;;;2.90;;
68072;SDS011;54862;51.502;7.446;2022-09-09T07:25:54;5.63;;;2.53;;
68072;SDS011;54862;51.502;7.446;2022-09-09T07:28:20;7.00;;;2.38;;
68072;SDS011;54862;51.502;7.446;2022-09-09T07:30:54;4.90;;;2.13;;
68072;SDS011;54862;51.502;7.446;2022-09-09T07:33:20;5.32;;;2.22;;
68072;SDS011;54862;51.502;7.446;2022-09-09T07:35:46;4.70;;;2.30;;
68072;SDS011;54862;51.502;7.446;2022-09-09T07:38:12;5.53;;;2.20;;
68072;SDS011;54862;51.502;7.446;2022-09-09T07:40:38;9.10;;;2.10;;
68072;SDS011;54862;51.502;7.446;2022-09-09T07:43:04;5.00;;;2.05;;
68072;SDS011;54862;51.502;7.446;2022-09-09T07:45:30;5.07;;;2.10;;
68072;SDS011;54862;51.502;7.446;2022-09-09T07:47:57;8.40;;;2.35;;
68072;SDS011;54862;51.502;7.446;2022-09-09T07:50:23;4.72;;;1.90;;
68072;SDS011;54862;51.502;7.446;2022-09-09T07:52:50;4.97;;;2.20;;
68072;SDS011;54862;51.502;7.446;2022-09-09T07:55:16;5.57;;;2.10;;
68072;SDS011;54862;51.502;7.446;2022-09-09T07:57:42;4.65;;;2.10;;
68072;SDS011;54862;51.502;7.446;2022-09-09T08:00:09;7.38;;;2.50;;
68072;SDS011;54862;51.502;7.446;2022-09-09T08:02:35;4.82;;;2.05;;
68072;SDS011;54862;51.502;7.446;2022-09-09T08:05:01;6.82;;;2.17;;
68072;SDS011;54862;51.502;7.446;2022-09-09T08:07:27;5.70;;;1.80;;
68072;SDS011;54862;51.502;7.446;2022-09-09T08:09:54;8.73;;;2.20;;
68072;SDS011;54862;51.502;7.446;2022-09-09T08:12:20;5.97;;;2.35;;
68072;SDS011;54862;51.502;7.446;2022-09-09T08:14:47;5.53;;;1.90;;
68072;SDS011;54862;51.502;7.446;2022-09-09T08:17:13;5.05;;;2.00;;
68072;SDS011;54862;51.502;7.446;2022-09-09T08:19:39;8.70;;;2.10;;
68072;SDS011;54862;51.502;7.446;2022-09-09T08:22:05;6.32;;;2.03;;
68072;SDS011;54862;51.502;7.446;2022-09-09T08:24:32;4.70;;;1.83;;
68072;SDS011;54862;51.502;7.446;2022-09-09T08:26:58;6.50;;;2.15;;
68072;SDS011;54862;51.502;7.446;2022-09-09T08:29:24;3.97;;;2.00;;
68072;SDS011;54862;51.502;7.446;2022-09-09T08:31:51;7.10;;;2.28;;
68072;SDS011;54862;51.502;7.446;2022-09-09T08:34:19;7.45;;;2.00;;
68072;SDS011;54862;51.502;7.446;2022-09-09T08:36:46;6.45;;;2.00;;
68072;SDS011;54862;51.502;7.446;2022-09-09T08:39:13;5.85;;;2.00;;
68072;SDS011;54862;51.502;7.446;2022-09-09T08:41:42;8.43;;;2.20;;
68072;SDS011;54862;51.502;7.446;2022-09-09T08:52:13;7.15;;;2.22;;
68072;SDS011;54862;51.502;7.446;2022-09-09T08:54:40;5.60;;;2.10;;
68072;SDS011;54862;51.502;7.446;2022-09-09T08:57:09;4.25;;;1.77;;
68072;SDS011;54862;51.502;7.446;2022-09-09T08:59:37;5.63;;;1.90;;
68072;SDS011;54862;51.502;7.446;2022-09-09T09:09:57;6.07;;;1.98;;
68072;SDS011;54862;51.502;7.446;2022-09-09T09:12:27;5.17;;;1.90;;
68072;SDS011;54862;51.502;7.446;2022-09-09T09:14:54;4.90;;;1.85;;
68072;SDS011;54862;51.502;7.446;2022-09-09T09:17:23;7.10;;;2.00;;
68072;SDS011;54862;51.502;7.446;2022-09-09T09:19:51;4.55;;;1.80;;
68072;SDS011;54862;51.502;7.446;2022-09-09T09:22:18;6.20;;;1.92;;
68072;SDS011;54862;51.502;7.446;2022-09-09T09:24:56;8.93;;;2.10;;
68072;SDS011;54862;51.502;7.446;2022-09-09T09:29:48;11.45;;;2.20;;
68072;SDS011;54862;51.502;7.446;2022-09-09T09:32:16;6.32;;;1.98;;
68072;SDS011;54862;51.502;7.446;2022-09-09T09:34:48;5.20;;;1.80;;
68072;SDS011;54862;51.502;7.446;2022-09-09T09:37:17;5.43;;;1.80;;
68072;SDS011;54862;51.502;7.446;2022-09-09T09:39:45;8.43;;;2.10;;
68072;SDS011;54862;51.502;7.446;2022-09-09T09:42:12;6.55;;;2.00;;
68072;SDS011;54862;51.502;7.446;2022-09-09T09:44:39;6.10;;;1.90;;
68072;SDS011;54862;51.502;7.446;2022-09-09T09:47:06;7.03;;;1.80;;
68072;SDS011;54862;51.502;7.446;2022-09-09T09:49:33;6.28;;;2.25;;
68072;SDS011;54862;51.502;7.446;2022-09-09T09:52:02;4.25;;;1.83;;
68072;SDS011;54862;51.502;7.446;2022-09-09T09:54:29;6.82;;;1.98;;
68072;SDS011;54862;51.502;7.446;2022-09-09T09:56:56;11.27;;;2.30;;
68072;SDS011;54862;51.502;7.446;2022-09-09T09:59:24;7.53;;;2.10;;
68072;SDS011;54862;51.502;7.446;2022-09-09T10:02:18;7.78;;;1.92;;
68072;SDS011;54862;51.502;7.446;2022-09-09T10:04:45;7.05;;;1.85;;
68072;SDS011;54862;51.502;7.446;2022-09-09T10:07:12;6.43;;;2.13;;
68072;SDS011;54862;51.502;7.446;2022-09-09T10:09:38;6.95;;;1.90;;
68072;SDS011;54862;51.502;7.446;2022-09-09T10:12:18;6.78;;;1.85;;
68072;SDS011;54862;51.502;7.446;2022-09-09T10:17:16;6.72;;;1.70;;
68072;SDS011;54862;51.502;7.446;2022-09-09T10:22:32;5.68;;;1.70;;
68072;SDS011;54862;51.502;7.446;2022-09-09T10:25:05;4.72;;;1.90;;
68072;SDS011;54862;51.502;7.446;2022-09-09T10:27:45;6.28;;;1.73;;
68072;SDS011;54862;51.502;7.446;2022-09-09T10:33:00;7.45;;;2.05;;
68072;SDS011;54862;51.502;7.446;2022-09-09T10:38:10;5.07;;;1.58;;
68072;SDS011;54862;51.502;7.446;2022-09-09T10:51:01;4.38;;;1.60;;
68072;SDS011;54862;51.502;7.446;2022-09-09T10:53:34;3.50;;;1.65;;
68072;SDS011;54862;51.502;7.446;2022-09-09T10:56:03;6.18;;;1.60;;
68072;SDS011;54862;51.502;7.446;2022-09-09T10:58:34;6.20;;;1.70;;
68072;SDS011;54862;51.502;7.446;2022-09-09T11:01:02;4.28;;;1.70;;
68072;SDS011;54862;51.502;7.446;2022-09-09T11:03:32;3.83;;;1.80;;
68072;SDS011;54862;51.502;7.446;2022-09-09T11:06:00;3.25;;;1.52;;
68072;SDS011;54862;51.502;7.446;2022-09-09T11:08:32;4.82;;;1.42;;
68072;SDS011;54862;51.502;7.446;2022-09-09T11:16:04;3.60;;;1.75;;
68072;SDS011;54862;51.502;7.446;2022-09-09T11:18:31;3.75;;;1.52;;
68072;SDS011;54862;51.502;7.446;2022-09-09T11:21:01;2.90;;;1.40;;
68072;SDS011;54862;51.502;7.446;2022-09-09T11:23:42;3.38;;;1.58;;
68072;SDS011;54862;51.502;7.446;2022-09-09T11:26:15;4.45;;;1.60;;
68072;SDS011;54862;51.502;7.446;2022-09-09T11:42:05;5.72;;;1.60;;
68072;SDS011;54862;51.502;7.446;2022-09-09T11:44:32;4.75;;;1.50;;
68072;SDS011;54862;51.502;7.446;2022-09-09T11:46:58;4.78;;;1.40;;
68072;SDS011;54862;51.502;7.446;2022-09-09T11:49:26;6.15;;;1.60;;
68072;SDS011;54862;51.502;7.446;2022-09-09T11:51:53;3.17;;;1.48;;
68072;SDS011;54862;51.502;7.446;2022-09-09T11:56:54;4.78;;;1.60;;
68072;SDS011;54862;51.502;7.446;2022-09-09T11:59:21;4.85;;;1.52;;
68072;SDS011;54862;51.502;7.446;2022-09-09T12:01:58;5.43;;;1.60;;
68072;SDS011;54862;51.502;7.446;2022-09-09T12:06:52;2.80;;;1.58;;
68072;SDS011;54862;51.502;7.446;2022-09-09T12:09:29;6.57;;;1.58;;
68072;SDS011;54862;51.502;7.446;2022-09-09T12:12:07;2.90;;;1.40;;
68072;SDS011;54862;51.502;7.446;2022-09-09T12:14:35;5.28;;;1.40;;
68072;SDS011;54862;51.502;7.446;2022-09-09T12:17:20;8.23;;;1.80;;
68072;SDS011;54862;51.502;7.446;2022-09-09T12:19:47;7.45;;;1.80;;
68072;SDS011;54862;51.502;7.446;2022-09-09T12:24:51;5.22;;;1.60;;
68072;SDS011;54862;51.502;7.446;2022-09-09T12:27:20;4.88;;;2.10;;
68072;SDS011;54862;51.502;7.446;2022-09-09T12:32:26;4.25;;;1.60;;
68072;SDS011;54862;51.502;7.446;2022-09-09T12:35:04;4.95;;;1.90;;
68072;SDS011;54862;51.502;7.446;2022-09-09T12:40:03;6.45;;;1.92;;
68072;SDS011;54862;51.502;7.446;2022-09-09T12:42:30;5.30;;;1.77;;
68072;SDS011;54862;51.502;7.446;2022-09-09T12:45:03;4.65;;;1.80;;
68072;SDS011;54862;51.502;7.446;2022-09-09T12:50:00;6.80;;;2.15;;
68072;SDS011;54862;51.502;7.446;2022-09-09T12:52:27;8.70;;;2.55;;
68072;SDS011;54862;51.502;7.446;2022-09-09T12:54:58;4.38;;;1.90;;
68072;SDS011;54862;51.502;7.446;2022-09-09T12:57:25;3.97;;;2.00;;
68072;SDS011;54862;51.502;7.446;2022-09-09T12:59:51;6.18;;;2.10;;
68072;SDS011;54862;51.502;7.446;2022-09-09T13:02:19;7.75;;;2.55;;
68072;SDS011;54862;51.502;7.446;2022-09-09T13:04:46;4.18;;;2.03;;
68072;SDS011;54862;51.502;7.446;2022-09-09T13:07:12;5.13;;;2.15;;
68072;SDS011;54862;51.502;7.446;2022-09-09T13:09:40;4.85;;;2.30;;
68072;SDS011;54862;51.502;7.446;2022-09-09T13:12:09;5.45;;;2.08;;
68072;SDS011;54862;51.502;7.446;2022-09-09T13:14:38;6.07;;;2.10;;
68072;SDS011;54862;51.502;7.446;2022-09-09T13:17:05;3.85;;;1.85;;
68072;SDS011;54862;51.502;7.446;2022-09-09T13:19:37;5.25;;;1.90;;
68072;SDS011;54862;51.502;7.446;2022-09-09T13:22:11;4.63;;;1.90;;
68072;SDS011;54862;51.502;7.446;2022-09-09T13:24:38;5.60;;;2.22;;
68072;SDS011;54862;51.502;7.446;2022-09-09T13:27:51;6.30;;;2.10;;
68072;SDS011;54862;51.502;7.446;2022-09-09T13:29:51;5.43;;;1.90;;
68072;SDS011;54862;51.502;7.446;2022-09-09T13:32:19;3.80;;;1.80;;
68072;SDS011;54862;51.502;7.446;2022-09-09T13:34:55;3.60;;;1.70;;
68072;SDS011;54862;51.502;7.446;2022-09-09T13:37:33;3.55;;;1.90;;
68072;SDS011;54862;51.502;7.446;2022-09-09T13:39:59;5.40;;;1.88;;
68072;SDS011;54862;51.502;7.446;2022-09-09T13:42:27;5.75;;;2.00;;
68072;SDS011;54862;51.502;7.446;2022-09-09T13:44:55;4.00;;;1.70;;
68072;SDS011;54862;51.502;7.446;2022-09-09T13:47:26;4.20;;;1.70;;
68072;SDS011;54862;51.502;7.446;2022-09-09T13:49:53;5.88;;;2.28;;
68072;SDS011;54862;51.502;7.446;2022-09-09T13:52:19;4.15;;;1.60;;
68072;SDS011;54862;51.502;7.446;2022-09-09T13:54:50;4.28;;;1.63;;
68072;SDS011;54862;51.502;7.446;2022-09-09T13:57:17;6.90;;;1.80;;
68072;SDS011;54862;51.502;7.446;2022-09-09T13:59:45;5.47;;;2.05;;
68072;SDS011;54862;51.502;7.446;2022-09-09T14:02:11;4.90;;;1.70;;
68072;SDS011;54862;51.502;7.446;2022-09-09T14:04:37;3.47;;;1.52;;
68072;SDS011;54862;51.502;7.446;2022-09-09T14:07:06;3.28;;;1.42;;
68072;SDS011;54862;51.502;7.446;2022-09-09T14:09:34;5.45;;;1.88;;
68072;SDS011;54862;51.502;7.446;2022-09-09T14:12:01;2.30;;;1.55;;
68072;SDS011;54862;51.502;7.446;2022-09-09T14:14:27;4.82;;;1.73;;
68072;SDS011;54862;51.502;7.446;2022-09-09T14:16:53;3.35;;;1.65;;
68072;SDS011;54862;51.502;7.446;2022-09-09T14:19:19;5.38;;;1.75;;
68072;SDS011;54862;51.502;7.446;2022-09-09T14:21:45;7.68;;;2.00;;
68072;SDS011;54862;51.502;7.446;2022-09-09T14:24:11;4.68;;;2.03;;
68072;SDS011;54862;51.502;7.446;2022-09-09T14:26:38;5.55;;;2.15;;
68072;SDS011;54862;51.502;7.446;2022-09-09T14:29:06;6.25;;;2.40;;
68072;SDS011;54862;51.502;7.446;2022-09-09T14:31:32;4.95;;;1.83;;
68072;SDS011;54862;51.502;7.446;2022-09-09T14:33:58;4.32;;;1.70;;
68072;SDS011;54862;51.502;7.446;2022-09-09T14:36:24;5.55;;;1.98;;
68072;SDS011;54862;51.502;7.446;2022-09-09T14:38:50;5.03;;;1.90;;
68072;SDS011;54862;51.502;7.446;2022-09-09T14:41:17;7.55;;;2.10;;
68072;SDS011;54862;51.502;7.446;2022-09-09T14:43:44;4.60;;;1.98;;
68072;SDS011;54862;51.502;7.446;2022-09-09T14:46:11;4.75;;;2.13;;
68072;SDS011;54862;51.502;7.446;2022-09-09T14:48:38;5.10;;;2.08;;
68072;SDS011;54862;51.502;7.446;2022-09-09T14:51:16;5.15;;;1.90;;
68072;SDS011;54862;51.502;7.446;2022-09-09T14:53:42;2.13;;;1.55;;
68072;SDS011;54862;51.502;7.446;2022-09-09T14:56:13;4.20;;;1.80;;
68072;SDS011;54862;51.502;7.446;2022-09-09T14:58:39;5.30;;;1.90;;
68072;SDS011;54862;51.502;7.446;2022-09-09T15:01:06;5.22;;;2.13;;
68072;SDS011;54862;51.502;7.446;2022-09-09T15:03:32;3.67;;;1.80;;
68072;SDS011;54862;51.502;7.446;2022-09-09T15:06:04;3.47;;;1.73;;
68072;SDS011;54862;51.502;7.446;2022-09-09T15:08:30;6.25;;;2.00;;
68072;SDS011;54862;51.502;7.446;2022-09-09T15:11:00;9.10;;;2.20;;
68072;SDS011;54862;51.502;7.446;2022-09-09T15:13:26;6.47;;;2.10;;
68072;SDS011;54862;51.502;7.446;2022-09-09T15:15:53;5.22;;;2.25;;
68072;SDS011;54862;51.502;7.446;2022-09-09T15:18:19;5.47;;;2.00;;
68072;SDS011;54862;51.502;7.446;2022-09-09T15:20:45;3.10;;;1.92;;
68072;SDS011;54862;51.502;7.446;2022-09-09T15:23:12;7.05;;;2.30;;
68072;SDS011;54862;51.502;7.446;2022-09-09T15:25:38;6.32;;;2.22;;
68072;SDS011;54862;51.502;7.446;2022-09-09T15:28:05;8.43;;;2.33;;
68072;SDS011;54862;51.502;7.446;2022-09-09T15:30:31;4.38;;;2.10;;
68072;SDS011;54862;51.502;7.446;2022-09-09T15:32:57;7.25;;;2.40;;
68072;SDS011;54862;51.502;7.446;2022-09-09T15:35:23;5.75;;;2.00;;
68072;SDS011;54862;51.502;7.446;2022-09-09T15:37:49;8.52;;;2.58;;
68072;SDS011;54862;51.502;7.446;2022-09-09T15:40:15;5.75;;;2.00;;
68072;SDS011;54862;51.502;7.446;2022-09-09T15:42:41;4.18;;;2.08;;
68072;SDS011;54862;51.502;7.446;2022-09-09T15:45:07;11.98;;;2.40;;
68072;SDS011;54862;51.502;7.446;2022-09-09T15:47:34;10.57;;;1.95;;
68072;SDS011;54862;51.502;7.446;2022-09-09T15:50:00;6.35;;;1.85;;
68072;SDS011;54862;51.502;7.446;2022-09-09T15:52:26;4.18;;;1.90;;
68072;SDS011;54862;51.502;7.446;2022-09-09T15:54:52;7.10;;;1.90;;
68072;SDS011;54862;51.502;7.446;2022-09-09T15:57:19;7.93;;;1.83;;
68072;SDS011;54862;51.502;7.446;2022-09-09T15:59:45;7.43;;;2.10;;
68072;SDS011;54862;51.502;7.446;2022-09-09T16:02:11;6.68;;;2.13;;
68072;SDS011;54862;51.502;7.446;2022-09-09T16:04:37;7.68;;;1.90;;
68072;SDS011;54862;51.502;7.446;2022-09-09T16:07:04;5.93;;;1.90;;
68072;SDS011;54862;51.502;7.446;2022-09-09T16:09:31;6.50;;;2.45;;
68072;SDS011;54862;51.502;7.446;2022-09-09T16:11:58;8.07;;;2.20;;
68072;SDS011;54862;51.502;7.446;2022-09-09T16:14:26;6.00;;;2.10;;
68072;SDS011;54862;51.502;7.446;2022-09-09T16:16:52;6.90;;;2.20;;
68072;SDS011;54862;51.502;7.446;2022-09-09T16:19:18;6.72;;;2.20;;
68072;SDS011;54862;51.502;7.446;2022-09-09T16:21:45;6.63;;;2.08;;
68072;SDS011;54862;51.502;7.446;2022-09-09T16:24:13;4.13;;;2.08;;
68072;SDS011;54862;51.502;7.446;2022-09-09T16:26:41;5.35;;;1.73;;
68072;SDS011;54862;51.502;7.446;2022-09-09T16:29:10;4.15;;;1.90;;
68072;SDS011;54862;51.502;7.446;2022-09-09T16:31:36;4.45;;;1.75;;
68072;SDS011;54862;51.502;7.446;2022-09-09T16:34:02;6.20;;;2.38;;
68072;SDS011;54862;51.502;7.446;2022-09-09T16:36:29;3.85;;;1.88;;
68072;SDS011;54862;51.502;7.446;2022-09-09T16:38:56;4.32;;;2.00;;
68072;SDS011;54862;51.502;7.446;2022-09-09T16:41:23;2.80;;;1.60;;
68072;SDS011;54862;51.502;7.446;2022-09-09T16:43:52;2.58;;;1.70;;
68072;SDS011;54862;51.502;7.446;2022-09-09T16:46:19;4.68;;;1.67;;
68072;SDS011;54862;51.502;7.446;2022-09-09T16:48:46;3.75;;;1.50;;
68072;SDS011;54862;51.502;7.446;2022-09-09T16:51:15;3.30;;;1.58;;
68072;SDS011;54862;51.502;7.446;2022-09-09T16:53:41;2.83;;;1.40;;